sensor_id;sensor_type;location;lat;lon;timestamp;P1;durP1;ratioP1;P2;durP2;ratioP2
23768;SDS011;12064;50.890;5.424;2024-03-02T00:06:44;1.33;;;0.70;;
23768;SDS011;12064;50.890;5.424;2024-03-02T00:24:34;2.75;;;0.80;;
23768;SDS011;12064;50.890;5.424;2024-03-02T00:33:26;2.25;;;0.75;;
23768;SDS011;12064;50.890;5.424;2024-03-02T00:42:18;1.17;;;0.70;;
23768;SDS011;12064;50.890;5.424;2024-03-02T00:51:09;2.13;;;0.73;;
23768;SDS011;12064;50.890;5.424;2024-03-02T01:00:00;3.05;;;0.70;;
23768;SDS011;12064;50.890;5.424;2024-03-02T01:08:51;2.05;;;0.80;;
23768;SDS011;12064;50.890;5.424;2024-03-02T01:17:42;2.83;;;0.90;;
23768;SDS011;12064;50.890;5.424;2024-03-02T01:26:33;1.63;;;0.73;;
23768;SDS011;12064;50.890;5.424;2024-03-02T01:35:23;2.17;;;0.70;;
23768;SDS011;12064;50.890;5.424;2024-03-02T01:44:14;2.70;;;0.70;;
23768;SDS011;12064;50.890;5.424;2024-03-02T01:53:04;1.73;;;0.68;;
23768;SDS011;12064;50.890;5.424;2024-03-02T02:01:55;2.33;;;0.80;;
23768;SDS011;12064;50.890;5.424;2024-03-02T02:10:46;1.75;;;0.55;;
23768;SDS011;12064;50.890;5.424;2024-03-02T02:19:36;2.67;;;0.80;;
23768;SDS011;12064;50.890;5.424;2024-03-02T02:28:27;0.77;;;0.47;;
23768;SDS011;12064;50.890;5.424;2024-03-02T02:37:18;0.85;;;0.50;;
23768;SDS011;12064;50.890;5.424;2024-03-02T02:46:09;1.50;;;0.95;;
23768;SDS011;12064;50.890;5.424;2024-03-02T02:54:59;1.67;;;0.70;;
23768;SDS011;12064;50.890;5.424;2024-03-02T03:03:50;1.60;;;0.47;;
23768;SDS011;12064;50.890;5.424;2024-03-02T03:12:40;1.20;;;0.70;;
23768;SDS011;12064;50.890;5.424;2024-03-02T03:21:32;1.30;;;0.52;;
23768;SDS011;12064;50.890;5.424;2024-03-02T03:30:23;2.15;;;0.70;;
23768;SDS011;12064;50.890;5.424;2024-03-02T03:39:14;1.20;;;0.60;;
23768;SDS011;12064;50.890;5.424;2024-03-02T03:48:04;1.57;;;0.57;;
23768;SDS011;12064;50.890;5.424;2024-03-02T03:56:55;1.70;;;0.80;;
23768;SDS011;12064;50.890;5.424;2024-03-02T04:05:46;1.80;;;0.80;;
23768;SDS011;12064;50.890;5.424;2024-03-02T04:14:36;1.43;;;0.50;;
23768;SDS011;12064;50.890;5.424;2024-03-02T04:23:27;2.55;;;0.60;;
23768;SDS011;12064;50.890;5.424;2024-03-02T04:32:18;1.48;;;0.50;;
23768;SDS011;12064;50.890;5.424;2024-03-02T04:41:09;2.35;;;0.50;;
23768;SDS011;12064;50.890;5.424;2024-03-02T04:50:00;1.83;;;0.50;;
23768;SDS011;12064;50.890;5.424;2024-03-02T04:58:51;1.73;;;0.60;;
23768;SDS011;12064;50.890;5.424;2024-03-02T05:07:41;1.43;;;0.70;;
23768;SDS011;12064;50.890;5.424;2024-03-02T05:16:34;2.55;;;0.60;;
23768;SDS011;12064;50.890;5.424;2024-03-02T05:25:25;3.17;;;0.70;;
23768;SDS011;12064;50.890;5.424;2024-03-02T05:34:16;3.03;;;0.80;;
23768;SDS011;12064;50.890;5.424;2024-03-02T05:43:06;1.20;;;0.40;;
23768;SDS011;12064;50.890;5.424;2024-03-02T05:51:57;3.58;;;0.80;;
23768;SDS011;12064;50.890;5.424;2024-03-02T06:00:48;2.10;;;0.70;;
23768;SDS011;12064;50.890;5.424;2024-03-02T06:09:38;1.47;;;0.60;;
23768;SDS011;12064;50.890;5.424;2024-03-02T06:18:30;2.72;;;0.60;;
23768;SDS011;12064;50.890;5.424;2024-03-02T06:27:21;1.20;;;0.70;;
23768;SDS011;12064;50.890;5.424;2024-03-02T06:36:11;1.33;;;0.50;;
23768;SDS011;12064;50.890;5.424;2024-03-02T06:45:02;2.00;;;0.70;;
23768;SDS011;12064;50.890;5.424;2024-03-02T06:53:53;2.20;;;0.70;;
23768;SDS011;12064;50.890;5.424;2024-03-02T07:02:44;3.93;;;0.90;;
23768;SDS011;12064;50.890;5.424;2024-03-02T07:11:35;1.95;;;0.60;;
23768;SDS011;12064;50.890;5.424;2024-03-02T07:20:26;2.47;;;0.90;;
23768;SDS011;12064;50.890;5.424;2024-03-02T07:29:16;1.87;;;0.90;;
23768;SDS011;12064;50.890;5.424;2024-03-02T07:38:10;3.42;;;1.00;;
23768;SDS011;12064;50.890;5.424;2024-03-02T07:47:02;2.38;;;1.02;;
23768;SDS011;12064;50.890;5.424;2024-03-02T07:55:53;2.03;;;1.00;;
23768;SDS011;12064;50.890;5.424;2024-03-02T08:04:44;1.85;;;0.85;;
23768;SDS011;12064;50.890;5.424;2024-03-02T08:13:36;1.48;;;0.80;;
23768;SDS011;12064;50.890;5.424;2024-03-02T08:22:26;5.07;;;1.00;;
23768;SDS011;12064;50.890;5.424;2024-03-02T08:31:20;3.50;;;1.00;;
23768;SDS011;12064;50.890;5.424;2024-03-02T08:40:10;3.43;;;1.00;;
23768;SDS011;12064;50.890;5.424;2024-03-02T08:49:02;2.47;;;0.93;;
23768;SDS011;12064;50.890;5.424;2024-03-02T08:57:53;2.45;;;0.80;;
23768;SDS011;12064;50.890;5.424;2024-03-02T09:06:44;2.90;;;0.90;;
23768;SDS011;12064;50.890;5.424;2024-03-02T09:15:35;3.42;;;1.08;;
23768;SDS011;12064;50.890;5.424;2024-03-02T09:24:27;4.32;;;1.20;;
23768;SDS011;12064;50.890;5.424;2024-03-02T09:33:18;3.03;;;1.10;;
23768;SDS011;12064;50.890;5.424;2024-03-02T09:42:08;3.07;;;1.10;;
23768;SDS011;12064;50.890;5.424;2024-03-02T09:50:59;3.30;;;0.97;;
23768;SDS011;12064;50.890;5.424;2024-03-02T09:59:51;3.08;;;1.17;;
23768;SDS011;12064;50.890;5.424;2024-03-02T10:08:42;3.70;;;0.80;;
23768;SDS011;12064;50.890;5.424;2024-03-02T10:17:33;2.30;;;0.90;;
23768;SDS011;12064;50.890;5.424;2024-03-02T10:26:24;1.40;;;0.57;;
23768;SDS011;12064;50.890;5.424;2024-03-02T10:35:16;3.40;;;0.90;;
23768;SDS011;12064;50.890;5.424;2024-03-02T10:44:07;2.30;;;0.70;;
23768;SDS011;12064;50.890;5.424;2024-03-02T10:53:01;3.70;;;1.23;;
23768;SDS011;12064;50.890;5.424;2024-03-02T11:01:56;3.08;;;0.90;;
23768;SDS011;12064;50.890;5.424;2024-03-02T11:10:58;2.47;;;1.00;;
23768;SDS011;12064;50.890;5.424;2024-03-02T11:19:56;3.15;;;0.98;;
23768;SDS011;12064;50.890;5.424;2024-03-02T11:28:48;3.05;;;1.08;;
23768;SDS011;12064;50.890;5.424;2024-03-02T11:37:39;2.50;;;0.98;;
23768;SDS011;12064;50.890;5.424;2024-03-02T11:46:29;4.57;;;0.93;;
23768;SDS011;12064;50.890;5.424;2024-03-02T11:55:20;2.17;;;0.80;;
23768;SDS011;12064;50.890;5.424;2024-03-02T12:04:13;2.85;;;0.88;;
23768;SDS011;12064;50.890;5.424;2024-03-02T12:13:06;2.50;;;1.00;;
23768;SDS011;12064;50.890;5.424;2024-03-02T12:21:59;1.83;;;0.70;;
23768;SDS011;12064;50.890;5.424;2024-03-02T12:30:51;2.17;;;0.80;;
23768;SDS011;12064;50.890;5.424;2024-03-02T12:39:44;3.45;;;1.08;;
23768;SDS011;12064;50.890;5.424;2024-03-02T12:48:36;1.95;;;0.90;;
23768;SDS011;12064;50.890;5.424;2024-03-02T12:57:29;2.88;;;0.80;;
23768;SDS011;12064;50.890;5.424;2024-03-02T13:06:24;2.40;;;0.90;;
23768;SDS011;12064;50.890;5.424;2024-03-02T13:15:17;2.15;;;0.85;;
23768;SDS011;12064;50.890;5.424;2024-03-02T13:24:08;2.53;;;0.80;;
23768;SDS011;12064;50.890;5.424;2024-03-02T13:32:59;2.80;;;0.70;;
23768;SDS011;12064;50.890;5.424;2024-03-02T13:41:49;1.83;;;0.80;;
23768;SDS011;12064;50.890;5.424;2024-03-02T13:50:47;1.93;;;0.77;;
23768;SDS011;12064;50.890;5.424;2024-03-02T13:59:40;2.22;;;0.90;;
23768;SDS011;12064;50.890;5.424;2024-03-02T14:08:32;1.45;;;0.63;;
23768;SDS011;12064;50.890;5.424;2024-03-02T14:17:24;1.05;;;0.50;;
23768;SDS011;12064;50.890;5.424;2024-03-02T14:26:15;2.00;;;0.93;;
23768;SDS011;12064;50.890;5.424;2024-03-02T14:35:06;1.15;;;0.50;;
23768;SDS011;12064;50.890;5.424;2024-03-02T14:44:00;1.88;;;0.70;;
23768;SDS011;12064;50.890;5.424;2024-03-02T14:52:50;1.50;;;0.70;;
23768;SDS011;12064;50.890;5.424;2024-03-02T15:01:41;1.15;;;0.70;;
23768;SDS011;12064;50.890;5.424;2024-03-02T15:10:33;0.85;;;0.60;;
23768;SDS011;12064;50.890;5.424;2024-03-02T15:19:24;1.63;;;0.70;;
23768;SDS011;12064;50.890;5.424;2024-03-02T15:28:14;1.13;;;0.80;;
23768;SDS011;12064;50.890;5.424;2024-03-02T15:37:05;1.20;;;0.70;;
23768;SDS011;12064;50.890;5.424;2024-03-02T15:45:57;1.08;;;0.55;;
23768;SDS011;12064;50.890;5.424;2024-03-02T15:54:48;3.58;;;0.75;;
23768;SDS011;12064;50.890;5.424;2024-03-02T16:03:43;1.73;;;0.60;;
23768;SDS011;12064;50.890;5.424;2024-03-02T16:12:33;1.08;;;0.77;;
23768;SDS011;12064;50.890;5.424;2024-03-02T16:21:25;1.38;;;0.80;;
23768;SDS011;12064;50.890;5.424;2024-03-02T16:30:16;1.10;;;0.93;;
23768;SDS011;12064;50.890;5.424;2024-03-02T16:39:08;2.00;;;0.70;;
23768;SDS011;12064;50.890;5.424;2024-03-02T16:47:59;2.20;;;0.70;;
23768;SDS011;12064;50.890;5.424;2024-03-02T16:56:49;1.03;;;0.80;;
23768;SDS011;12064;50.890;5.424;2024-03-02T17:05:40;1.63;;;0.70;;
23768;SDS011;12064;50.890;5.424;2024-03-02T17:14:31;11.50;;;1.60;;
23768;SDS011;12064;50.890;5.424;2024-03-02T17:23:21;11.77;;;1.80;;
23768;SDS011;12064;50.890;5.424;2024-03-02T17:32:12;8.10;;;1.70;;
23768;SDS011;12064;50.890;5.424;2024-03-02T17:41:03;7.13;;;1.40;;
23768;SDS011;12064;50.890;5.424;2024-03-02T17:49:54;5.00;;;1.45;;
23768;SDS011;12064;50.890;5.424;2024-03-02T17:58:45;8.73;;;1.50;;
23768;SDS011;12064;50.890;5.424;2024-03-02T18:07:36;6.47;;;1.10;;
23768;SDS011;12064;50.890;5.424;2024-03-02T18:16:27;4.55;;;1.15;;
23768;SDS011;12064;50.890;5.424;2024-03-02T18:25:17;5.53;;;1.33;;
23768;SDS011;12064;50.890;5.424;2024-03-02T18:34:08;3.27;;;1.10;;
23768;SDS011;12064;50.890;5.424;2024-03-02T18:42:59;5.32;;;1.17;;
23768;SDS011;12064;50.890;5.424;2024-03-02T18:51:51;3.78;;;1.10;;
23768;SDS011;12064;50.890;5.424;2024-03-02T19:00:42;3.65;;;1.08;;
23768;SDS011;12064;50.890;5.424;2024-03-02T19:09:33;3.70;;;1.07;;
23768;SDS011;12064;50.890;5.424;2024-03-02T19:18:25;4.65;;;1.05;;
23768;SDS011;12064;50.890;5.424;2024-03-02T19:27:15;3.10;;;1.25;;
23768;SDS011;12064;50.890;5.424;2024-03-02T19:36:06;2.10;;;0.90;;
23768;SDS011;12064;50.890;5.424;2024-03-02T19:44:57;2.53;;;0.90;;
23768;SDS011;12064;50.890;5.424;2024-03-02T19:53:47;4.93;;;1.00;;
23768;SDS011;12064;50.890;5.424;2024-03-02T20:02:38;2.20;;;0.80;;
23768;SDS011;12064;50.890;5.424;2024-03-02T20:11:32;2.25;;;0.60;;
23768;SDS011;12064;50.890;5.424;2024-03-02T20:20:23;2.00;;;0.90;;
23768;SDS011;12064;50.890;5.424;2024-03-02T20:29:14;2.63;;;0.90;;
23768;SDS011;12064;50.890;5.424;2024-03-02T20:38:05;2.00;;;1.00;;
23768;SDS011;12064;50.890;5.424;2024-03-02T20:46:55;3.03;;;0.90;;
23768;SDS011;12064;50.890;5.424;2024-03-02T20:55:46;1.75;;;0.80;;
23768;SDS011;12064;50.890;5.424;2024-03-02T21:04:37;2.97;;;0.87;;
23768;SDS011;12064;50.890;5.424;2024-03-02T21:13:28;2.17;;;0.77;;
23768;SDS011;12064;50.890;5.424;2024-03-02T21:22:18;3.28;;;0.88;;
23768;SDS011;12064;50.890;5.424;2024-03-02T21:31:17;2.03;;;0.73;;
23768;SDS011;12064;50.890;5.424;2024-03-02T21:40:08;2.85;;;0.82;;
23768;SDS011;12064;50.890;5.424;2024-03-02T21:49:01;3.70;;;0.73;;
23768;SDS011;12064;50.890;5.424;2024-03-02T21:57:51;2.67;;;0.80;;
23768;SDS011;12064;50.890;5.424;2024-03-02T22:06:44;4.20;;;0.75;;
23768;SDS011;12064;50.890;5.424;2024-03-02T22:15:36;3.28;;;0.75;;
23768;SDS011;12064;50.890;5.424;2024-03-02T22:24:26;2.83;;;0.70;;
23768;SDS011;12064;50.890;5.424;2024-03-02T22:33:17;2.08;;;0.77;;
23768;SDS011;12064;50.890;5.424;2024-03-02T22:42:08;3.23;;;0.60;;
23768;SDS011;12064;50.890;5.424;2024-03-02T22:50:58;0.88;;;0.70;;
23768;SDS011;12064;50.890;5.424;2024-03-02T22:59:50;1.98;;;0.70;;
23768;SDS011;12064;50.890;5.424;2024-03-02T23:08:41;2.28;;;0.70;;
23768;SDS011;12064;50.890;5.424;2024-03-02T23:17:33;1.85;;;0.80;;
23768;SDS011;12064;50.890;5.424;2024-03-02T23:26:24;1.73;;;0.60;;
23768;SDS011;12064;50.890;5.424;2024-03-02T23:35:15;1.90;;;0.70;;
23768;SDS011;12064;50.890;5.424;2024-03-02T23:44:05;3.95;;;0.90;;
23768;SDS011;12064;50.890;5.424;2024-03-02T23:52:57;1.65;;;0.70;;
